sensor_id;sensor_type;location;lat;lon;timestamp;P1;durP1;ratioP1;P2;durP2;ratioP2
16189;SDS011;41754;51.498;7.540;2023-05-07T00:01:03;10.27;;;9.30;;
16189;SDS011;41754;51.498;7.540;2023-05-07T00:03:32;9.80;;;8.90;;
16189;SDS011;41754;51.498;7.540;2023-05-07T00:06:00;9.20;;;8.38;;
16189;SDS011;41754;51.498;7.540;2023-05-07T00:08:28;9.90;;;8.90;;
16189;SDS011;41754;51.498;7.540;2023-05-07T00:10:56;9.23;;;8.43;;
16189;SDS011;41754;51.498;7.540;2023-05-07T00:13:24;9.93;;;9.13;;
16189;SDS011;41754;51.498;7.540;2023-05-07T00:15:52;10.27;;;8.85;;
16189;SDS011;41754;51.498;7.540;2023-05-07T00:18:22;10.30;;;9.40;;
16189;SDS011;41754;51.498;7.540;2023-05-07T00:20:50;10.85;;;9.77;;
16189;SDS011;41754;51.498;7.540;2023-05-07T00:23:18;10.73;;;9.82;;
16189;SDS011;41754;51.498;7.540;2023-05-07T00:25:45;10.48;;;9.50;;
16189;SDS011;41754;51.498;7.540;2023-05-07T00:28:13;10.20;;;9.23;;
16189;SDS011;41754;51.498;7.540;2023-05-07T00:30:41;11.15;;;10.15;;
16189;SDS011;41754;51.498;7.540;2023-05-07T00:33:09;10.88;;;9.77;;
16189;SDS011;41754;51.498;7.540;2023-05-07T00:35:39;11.30;;;10.20;;
16189;SDS011;41754;51.498;7.540;2023-05-07T00:38:07;10.93;;;9.93;;
16189;SDS011;41754;51.498;7.540;2023-05-07T00:40:35;11.98;;;10.38;;
16189;SDS011;41754;51.498;7.540;2023-05-07T00:43:03;13.05;;;10.13;;
16189;SDS011;41754;51.498;7.540;2023-05-07T00:45:31;10.35;;;9.35;;
16189;SDS011;41754;51.498;7.540;2023-05-07T00:48:00;11.02;;;9.93;;
16189;SDS011;41754;51.498;7.540;2023-05-07T00:50:30;10.73;;;9.77;;
16189;SDS011;41754;51.498;7.540;2023-05-07T00:53:01;10.85;;;9.95;;
16189;SDS011;41754;51.498;7.540;2023-05-07T00:55:30;12.43;;;10.18;;
16189;SDS011;41754;51.498;7.540;2023-05-07T00:57:58;10.00;;;9.20;;
16189;SDS011;41754;51.498;7.540;2023-05-07T01:00:25;10.25;;;9.25;;
16189;SDS011;41754;51.498;7.540;2023-05-07T01:02:54;9.60;;;8.77;;
16189;SDS011;41754;51.498;7.540;2023-05-07T01:05:23;9.65;;;8.50;;
16189;SDS011;41754;51.498;7.540;2023-05-07T01:07:53;10.00;;;9.10;;
16189;SDS011;41754;51.498;7.540;2023-05-07T01:10:24;9.30;;;8.40;;
16189;SDS011;41754;51.498;7.540;2023-05-07T01:12:53;10.55;;;9.50;;
16189;SDS011;41754;51.498;7.540;2023-05-07T01:15:22;10.57;;;9.35;;
16189;SDS011;41754;51.498;7.540;2023-05-07T01:17:50;10.02;;;9.13;;
16189;SDS011;41754;51.498;7.540;2023-05-07T01:20:25;9.93;;;8.95;;
16189;SDS011;41754;51.498;7.540;2023-05-07T01:22:56;10.75;;;9.65;;
16189;SDS011;41754;51.498;7.540;2023-05-07T01:25:25;10.82;;;9.18;;
16189;SDS011;41754;51.498;7.540;2023-05-07T01:27:56;9.93;;;8.93;;
16189;SDS011;41754;51.498;7.540;2023-05-07T01:30:28;9.93;;;9.02;;
16189;SDS011;41754;51.498;7.540;2023-05-07T01:33:00;10.50;;;9.60;;
16189;SDS011;41754;51.498;7.540;2023-05-07T01:35:32;10.88;;;9.77;;
16189;SDS011;41754;51.498;7.540;2023-05-07T01:38:06;11.18;;;10.18;;
16189;SDS011;41754;51.498;7.540;2023-05-07T01:40:35;11.63;;;9.75;;
16189;SDS011;41754;51.498;7.540;2023-05-07T01:43:03;13.10;;;11.55;;
16189;SDS011;41754;51.498;7.540;2023-05-07T01:45:34;11.45;;;10.35;;
16189;SDS011;41754;51.498;7.540;2023-05-07T01:48:02;11.32;;;10.20;;
16189;SDS011;41754;51.498;7.540;2023-05-07T01:50:31;10.52;;;9.52;;
16189;SDS011;41754;51.498;7.540;2023-05-07T01:53:01;12.07;;;9.43;;
16189;SDS011;41754;51.498;7.540;2023-05-07T01:55:31;10.27;;;9.02;;
16189;SDS011;41754;51.498;7.540;2023-05-07T01:57:59;10.23;;;9.23;;
16189;SDS011;41754;51.498;7.540;2023-05-07T02:00:27;11.38;;;10.23;;
16189;SDS011;41754;51.498;7.540;2023-05-07T02:02:55;10.30;;;9.20;;
16189;SDS011;41754;51.498;7.540;2023-05-07T02:05:33;9.98;;;9.00;;
16189;SDS011;41754;51.498;7.540;2023-05-07T02:08:27;10.73;;;8.93;;
16189;SDS011;41754;51.498;7.540;2023-05-07T02:10:58;11.00;;;9.77;;
16189;SDS011;41754;51.498;7.540;2023-05-07T02:13:28;10.52;;;9.43;;
16189;SDS011;41754;51.498;7.540;2023-05-07T02:15:57;11.77;;;10.75;;
16189;SDS011;41754;51.498;7.540;2023-05-07T02:18:26;10.45;;;9.43;;
16189;SDS011;41754;51.498;7.540;2023-05-07T02:20:54;10.48;;;9.43;;
16189;SDS011;41754;51.498;7.540;2023-05-07T02:23:22;11.63;;;10.43;;
16189;SDS011;41754;51.498;7.540;2023-05-07T02:25:51;10.65;;;9.75;;
16189;SDS011;41754;51.498;7.540;2023-05-07T02:28:20;11.40;;;10.18;;
16189;SDS011;41754;51.498;7.540;2023-05-07T02:30:52;10.70;;;9.68;;
16189;SDS011;41754;51.498;7.540;2023-05-07T02:33:21;10.50;;;9.52;;
16189;SDS011;41754;51.498;7.540;2023-05-07T02:35:49;10.85;;;9.77;;
16189;SDS011;41754;51.498;7.540;2023-05-07T02:38:18;11.60;;;10.45;;
16189;SDS011;41754;51.498;7.540;2023-05-07T02:40:46;10.15;;;9.25;;
16189;SDS011;41754;51.498;7.540;2023-05-07T02:43:15;11.38;;;9.55;;
16189;SDS011;41754;51.498;7.540;2023-05-07T02:45:47;10.07;;;9.07;;
16189;SDS011;41754;51.498;7.540;2023-05-07T02:48:15;11.13;;;8.77;;
16189;SDS011;41754;51.498;7.540;2023-05-07T02:50:43;9.60;;;8.65;;
16189;SDS011;41754;51.498;7.540;2023-05-07T02:53:13;10.20;;;9.20;;
16189;SDS011;41754;51.498;7.540;2023-05-07T02:55:41;10.32;;;9.32;;
16189;SDS011;41754;51.498;7.540;2023-05-07T02:58:09;10.45;;;9.45;;
16189;SDS011;41754;51.498;7.540;2023-05-07T03:00:39;9.95;;;8.95;;
16189;SDS011;41754;51.498;7.540;2023-05-07T03:03:27;8.63;;;7.93;;
16189;SDS011;41754;51.498;7.540;2023-05-07T03:05:55;8.63;;;7.85;;
16189;SDS011;41754;51.498;7.540;2023-05-07T03:08:24;9.07;;;8.20;;
16189;SDS011;41754;51.498;7.540;2023-05-07T03:10:52;11.48;;;9.82;;
16189;SDS011;41754;51.498;7.540;2023-05-07T03:13:20;13.02;;;11.73;;
16189;SDS011;41754;51.498;7.540;2023-05-07T03:15:48;15.43;;;13.93;;
16189;SDS011;41754;51.498;7.540;2023-05-07T03:18:16;17.05;;;15.50;;
16189;SDS011;41754;51.498;7.540;2023-05-07T03:20:45;16.42;;;14.85;;
16189;SDS011;41754;51.498;7.540;2023-05-07T03:23:17;16.77;;;15.27;;
16189;SDS011;41754;51.498;7.540;2023-05-07T03:25:45;16.85;;;15.15;;
16189;SDS011;41754;51.498;7.540;2023-05-07T03:28:13;18.63;;;15.57;;
16189;SDS011;41754;51.498;7.540;2023-05-07T03:30:47;17.85;;;16.20;;
16189;SDS011;41754;51.498;7.540;2023-05-07T03:33:16;16.67;;;15.05;;
16189;SDS011;41754;51.498;7.540;2023-05-07T03:35:46;16.48;;;15.02;;
16189;SDS011;41754;51.498;7.540;2023-05-07T03:38:19;17.23;;;15.57;;
16189;SDS011;41754;51.498;7.540;2023-05-07T03:40:47;17.00;;;15.50;;
16189;SDS011;41754;51.498;7.540;2023-05-07T03:43:16;16.08;;;14.68;;
16189;SDS011;41754;51.498;7.540;2023-05-07T03:45:49;17.13;;;15.63;;
16189;SDS011;41754;51.498;7.540;2023-05-07T03:48:22;17.25;;;15.73;;
16189;SDS011;41754;51.498;7.540;2023-05-07T03:50:53;18.27;;;16.58;;
16189;SDS011;41754;51.498;7.540;2023-05-07T03:53:21;19.17;;;16.35;;
16189;SDS011;41754;51.498;7.540;2023-05-07T03:55:50;18.60;;;16.83;;
16189;SDS011;41754;51.498;7.540;2023-05-07T03:58:18;17.63;;;15.90;;
16189;SDS011;41754;51.498;7.540;2023-05-07T04:00:47;16.08;;;14.68;;
16189;SDS011;41754;51.498;7.540;2023-05-07T04:03:23;17.45;;;15.85;;
16189;SDS011;41754;51.498;7.540;2023-05-07T04:05:54;17.50;;;15.82;;
16189;SDS011;41754;51.498;7.540;2023-05-07T04:08:22;17.38;;;15.88;;
16189;SDS011;41754;51.498;7.540;2023-05-07T04:10:56;17.33;;;15.80;;
16189;SDS011;41754;51.498;7.540;2023-05-07T04:13:29;17.27;;;15.65;;
16189;SDS011;41754;51.498;7.540;2023-05-07T04:16:00;17.45;;;16.05;;
16189;SDS011;41754;51.498;7.540;2023-05-07T04:18:30;17.65;;;15.95;;
16189;SDS011;41754;51.498;7.540;2023-05-07T04:21:00;15.45;;;14.05;;
16189;SDS011;41754;51.498;7.540;2023-05-07T04:23:28;16.77;;;15.27;;
16189;SDS011;41754;51.498;7.540;2023-05-07T04:25:59;17.02;;;15.50;;
16189;SDS011;41754;51.498;7.540;2023-05-07T04:28:33;15.48;;;14.07;;
16189;SDS011;41754;51.498;7.540;2023-05-07T04:31:02;15.05;;;13.75;;
16189;SDS011;41754;51.498;7.540;2023-05-07T04:33:32;14.07;;;12.85;;
16189;SDS011;41754;51.498;7.540;2023-05-07T04:36:02;14.20;;;13.10;;
16189;SDS011;41754;51.498;7.540;2023-05-07T04:38:37;13.55;;;12.38;;
16189;SDS011;41754;51.498;7.540;2023-05-07T04:41:05;13.85;;;12.65;;
16189;SDS011;41754;51.498;7.540;2023-05-07T04:43:38;14.20;;;13.02;;
16189;SDS011;41754;51.498;7.540;2023-05-07T04:46:06;12.82;;;11.82;;
16189;SDS011;41754;51.498;7.540;2023-05-07T04:48:35;13.10;;;12.00;;
16189;SDS011;41754;51.498;7.540;2023-05-07T04:51:06;12.80;;;11.50;;
16189;SDS011;41754;51.498;7.540;2023-05-07T04:53:34;11.68;;;10.52;;
16189;SDS011;41754;51.498;7.540;2023-05-07T04:56:02;10.80;;;9.90;;
16189;SDS011;41754;51.498;7.540;2023-05-07T04:58:37;9.75;;;9.00;;
16189;SDS011;41754;51.498;7.540;2023-05-07T05:01:05;10.20;;;9.35;;
16189;SDS011;41754;51.498;7.540;2023-05-07T05:03:34;9.68;;;8.75;;
16189;SDS011;41754;51.498;7.540;2023-05-07T05:06:02;9.63;;;8.70;;
16189;SDS011;41754;51.498;7.540;2023-05-07T05:08:34;9.85;;;8.85;;
16189;SDS011;41754;51.498;7.540;2023-05-07T05:11:03;13.02;;;8.80;;
16189;SDS011;41754;51.498;7.540;2023-05-07T05:13:33;11.07;;;8.75;;
16189;SDS011;41754;51.498;7.540;2023-05-07T05:16:08;8.48;;;7.78;;
16189;SDS011;41754;51.498;7.540;2023-05-07T05:18:37;8.68;;;7.20;;
16189;SDS011;41754;51.498;7.540;2023-05-07T05:21:07;9.15;;;7.05;;
16189;SDS011;41754;51.498;7.540;2023-05-07T05:23:37;9.05;;;7.38;;
16189;SDS011;41754;51.498;7.540;2023-05-07T05:26:05;7.38;;;6.68;;
16189;SDS011;41754;51.498;7.540;2023-05-07T05:28:34;10.85;;;7.57;;
16189;SDS011;41754;51.498;7.540;2023-05-07T05:31:04;8.55;;;7.68;;
16189;SDS011;41754;51.498;7.540;2023-05-07T05:33:35;6.72;;;6.07;;
16189;SDS011;41754;51.498;7.540;2023-05-07T05:36:04;6.57;;;5.88;;
16189;SDS011;41754;51.498;7.540;2023-05-07T05:38:37;7.40;;;5.80;;
16189;SDS011;41754;51.498;7.540;2023-05-07T05:41:06;6.07;;;5.57;;
16189;SDS011;41754;51.498;7.540;2023-05-07T05:43:34;6.05;;;5.50;;
16189;SDS011;41754;51.498;7.540;2023-05-07T05:46:03;6.05;;;5.47;;
16189;SDS011;41754;51.498;7.540;2023-05-07T05:48:33;6.32;;;5.82;;
16189;SDS011;41754;51.498;7.540;2023-05-07T05:51:03;6.85;;;6.22;;
16189;SDS011;41754;51.498;7.540;2023-05-07T05:53:31;6.32;;;5.75;;
16189;SDS011;41754;51.498;7.540;2023-05-07T05:56:01;6.82;;;6.30;;
16189;SDS011;41754;51.498;7.540;2023-05-07T05:58:32;7.03;;;6.40;;
16189;SDS011;41754;51.498;7.540;2023-05-07T06:01:03;7.28;;;6.57;;
16189;SDS011;41754;51.498;7.540;2023-05-07T06:03:34;6.82;;;6.15;;
16189;SDS011;41754;51.498;7.540;2023-05-07T06:06:07;6.88;;;5.50;;
16189;SDS011;41754;51.498;7.540;2023-05-07T06:08:36;11.27;;;9.13;;
16189;SDS011;41754;51.498;7.540;2023-05-07T06:11:05;5.88;;;5.28;;
16189;SDS011;41754;51.498;7.540;2023-05-07T06:13:37;4.97;;;4.47;;
16189;SDS011;41754;51.498;7.540;2023-05-07T06:16:05;4.22;;;3.83;;
16189;SDS011;41754;51.498;7.540;2023-05-07T06:18:34;5.60;;;4.50;;
16189;SDS011;41754;51.498;7.540;2023-05-07T06:21:02;7.25;;;4.30;;
16189;SDS011;41754;51.498;7.540;2023-05-07T06:23:32;5.13;;;4.60;;
16189;SDS011;41754;51.498;7.540;2023-05-07T06:26:01;4.72;;;3.80;;
16189;SDS011;41754;51.498;7.540;2023-05-07T06:28:36;4.45;;;4.05;;
16189;SDS011;41754;51.498;7.540;2023-05-07T06:31:12;4.63;;;3.88;;
16189;SDS011;41754;51.498;7.540;2023-05-07T06:33:46;5.53;;;4.05;;
16189;SDS011;41754;51.498;7.540;2023-05-07T06:36:16;4.50;;;4.10;;
16189;SDS011;41754;51.498;7.540;2023-05-07T06:38:45;3.72;;;3.42;;
16189;SDS011;41754;51.498;7.540;2023-05-07T06:41:14;4.38;;;3.97;;
16189;SDS011;41754;51.498;7.540;2023-05-07T06:43:44;4.82;;;4.10;;
16189;SDS011;41754;51.498;7.540;2023-05-07T06:46:25;4.38;;;3.60;;
16189;SDS011;41754;51.498;7.540;2023-05-07T06:48:53;4.22;;;3.85;;
16189;SDS011;41754;51.498;7.540;2023-05-07T06:51:25;3.63;;;3.33;;
16189;SDS011;41754;51.498;7.540;2023-05-07T06:53:54;4.20;;;3.63;;
16189;SDS011;41754;51.498;7.540;2023-05-07T06:56:22;5.45;;;3.83;;
16189;SDS011;41754;51.498;7.540;2023-05-07T06:58:53;4.32;;;4.03;;
16189;SDS011;41754;51.498;7.540;2023-05-07T07:01:21;6.82;;;4.82;;
16189;SDS011;41754;51.498;7.540;2023-05-07T07:03:49;5.45;;;4.97;;
16189;SDS011;41754;51.498;7.540;2023-05-07T07:06:19;5.65;;;5.00;;
16189;SDS011;41754;51.498;7.540;2023-05-07T07:08:47;5.07;;;4.57;;
16189;SDS011;41754;51.498;7.540;2023-05-07T07:11:17;3.92;;;3.58;;
16189;SDS011;41754;51.498;7.540;2023-05-07T07:13:45;5.38;;;3.63;;
16189;SDS011;41754;51.498;7.540;2023-05-07T07:16:14;5.20;;;4.25;;
16189;SDS011;41754;51.498;7.540;2023-05-07T07:18:44;4.57;;;4.10;;
16189;SDS011;41754;51.498;7.540;2023-05-07T07:21:13;4.38;;;3.92;;
16189;SDS011;41754;51.498;7.540;2023-05-07T07:23:41;5.40;;;4.93;;
16189;SDS011;41754;51.498;7.540;2023-05-07T07:26:10;5.70;;;5.20;;
16189;SDS011;41754;51.498;7.540;2023-05-07T07:28:42;6.07;;;5.55;;
16189;SDS011;41754;51.498;7.540;2023-05-07T07:31:15;6.70;;;5.07;;
16189;SDS011;41754;51.498;7.540;2023-05-07T07:33:44;5.60;;;5.20;;
16189;SDS011;41754;51.498;7.540;2023-05-07T07:36:12;7.03;;;6.25;;
16189;SDS011;41754;51.498;7.540;2023-05-07T07:38:41;7.03;;;6.10;;
16189;SDS011;41754;51.498;7.540;2023-05-07T07:41:09;6.00;;;5.40;;
16189;SDS011;41754;51.498;7.540;2023-05-07T07:43:37;6.22;;;5.65;;
16189;SDS011;41754;51.498;7.540;2023-05-07T07:46:05;6.45;;;5.82;;
16189;SDS011;41754;51.498;7.540;2023-05-07T07:48:35;7.38;;;6.05;;
16189;SDS011;41754;51.498;7.540;2023-05-07T07:51:03;6.35;;;5.68;;
16189;SDS011;41754;51.498;7.540;2023-05-07T07:53:32;6.82;;;6.13;;
16189;SDS011;41754;51.498;7.540;2023-05-07T07:56:00;5.72;;;5.32;;
16189;SDS011;41754;51.498;7.540;2023-05-07T07:58:33;7.13;;;6.25;;
16189;SDS011;41754;51.498;7.540;2023-05-07T08:01:02;6.65;;;6.05;;
16189;SDS011;41754;51.498;7.540;2023-05-07T08:03:31;6.78;;;6.22;;
16189;SDS011;41754;51.498;7.540;2023-05-07T08:06:02;7.00;;;6.32;;
16189;SDS011;41754;51.498;7.540;2023-05-07T08:08:33;10.27;;;6.80;;
16189;SDS011;41754;51.498;7.540;2023-05-07T08:11:01;7.13;;;6.53;;
16189;SDS011;41754;51.498;7.540;2023-05-07T08:13:32;8.07;;;7.32;;
16189;SDS011;41754;51.498;7.540;2023-05-07T08:16:00;8.27;;;7.57;;
16189;SDS011;41754;51.498;7.540;2023-05-07T08:18:28;8.07;;;7.47;;
16189;SDS011;41754;51.498;7.540;2023-05-07T08:21:00;8.57;;;7.88;;
16189;SDS011;41754;51.498;7.540;2023-05-07T08:23:31;8.60;;;7.78;;
16189;SDS011;41754;51.498;7.540;2023-05-07T08:26:01;9.95;;;9.18;;
16189;SDS011;41754;51.498;7.540;2023-05-07T08:28:29;9.13;;;8.32;;
16189;SDS011;41754;51.498;7.540;2023-05-07T08:30:57;10.20;;;9.20;;
16189;SDS011;41754;51.498;7.540;2023-05-07T08:33:31;11.68;;;10.02;;
16189;SDS011;41754;51.498;7.540;2023-05-07T08:35:59;11.02;;;9.85;;
16189;SDS011;41754;51.498;7.540;2023-05-07T08:38:27;10.85;;;9.80;;
16189;SDS011;41754;51.498;7.540;2023-05-07T08:40:57;10.05;;;9.25;;
16189;SDS011;41754;51.498;7.540;2023-05-07T08:43:26;12.05;;;10.85;;
16189;SDS011;41754;51.498;7.540;2023-05-07T08:45:54;11.38;;;10.38;;
16189;SDS011;41754;51.498;7.540;2023-05-07T08:48:28;10.88;;;10.07;;
16189;SDS011;41754;51.498;7.540;2023-05-07T08:51:11;11.00;;;10.00;;
16189;SDS011;41754;51.498;7.540;2023-05-07T08:53:41;11.90;;;10.82;;
16189;SDS011;41754;51.498;7.540;2023-05-07T08:56:14;11.55;;;10.50;;
16189;SDS011;41754;51.498;7.540;2023-05-07T08:58:47;11.65;;;10.63;;
16189;SDS011;41754;51.498;7.540;2023-05-07T09:01:16;12.55;;;11.15;;
16189;SDS011;41754;51.498;7.540;2023-05-07T09:03:49;12.05;;;11.05;;
16189;SDS011;41754;51.498;7.540;2023-05-07T09:06:18;11.93;;;10.82;;
16189;SDS011;41754;51.498;7.540;2023-05-07T09:08:49;12.68;;;11.48;;
16189;SDS011;41754;51.498;7.540;2023-05-07T09:11:23;12.55;;;11.45;;
16189;SDS011;41754;51.498;7.540;2023-05-07T09:13:54;12.68;;;11.68;;
16189;SDS011;41754;51.498;7.540;2023-05-07T09:16:25;13.02;;;11.80;;
16189;SDS011;41754;51.498;7.540;2023-05-07T09:18:54;12.45;;;11.13;;
16189;SDS011;41754;51.498;7.540;2023-05-07T09:21:22;12.85;;;11.75;;
16189;SDS011;41754;51.498;7.540;2023-05-07T09:23:53;11.95;;;10.85;;
16189;SDS011;41754;51.498;7.540;2023-05-07T09:26:32;12.68;;;11.63;;
16189;SDS011;41754;51.498;7.540;2023-05-07T09:29:03;12.40;;;11.25;;
16189;SDS011;41754;51.498;7.540;2023-05-07T09:31:31;12.20;;;11.10;;
16189;SDS011;41754;51.498;7.540;2023-05-07T09:33:58;13.15;;;11.77;;
16189;SDS011;41754;51.498;7.540;2023-05-07T09:36:29;11.90;;;10.90;;
16189;SDS011;41754;51.498;7.540;2023-05-07T09:39:00;12.00;;;11.00;;
16189;SDS011;41754;51.498;7.540;2023-05-07T09:41:29;12.05;;;11.18;;
16189;SDS011;41754;51.498;7.540;2023-05-07T09:44:08;12.18;;;11.07;;
16189;SDS011;41754;51.498;7.540;2023-05-07T09:46:42;12.15;;;10.95;;
16189;SDS011;41754;51.498;7.540;2023-05-07T09:49:20;12.48;;;11.25;;
16189;SDS011;41754;51.498;7.540;2023-05-07T09:51:53;13.23;;;12.13;;
16189;SDS011;41754;51.498;7.540;2023-05-07T09:54:24;12.02;;;10.95;;
16189;SDS011;41754;51.498;7.540;2023-05-07T09:56:56;11.50;;;10.48;;
16189;SDS011;41754;51.498;7.540;2023-05-07T09:59:26;12.00;;;11.00;;
16189;SDS011;41754;51.498;7.540;2023-05-07T10:01:59;11.80;;;10.70;;
16189;SDS011;41754;51.498;7.540;2023-05-07T10:04:33;11.23;;;10.23;;
16189;SDS011;41754;51.498;7.540;2023-05-07T10:07:02;10.82;;;9.93;;
16189;SDS011;41754;51.498;7.540;2023-05-07T10:09:33;9.82;;;8.93;;
16189;SDS011;41754;51.498;7.540;2023-05-07T10:12:08;11.50;;;10.48;;
16189;SDS011;41754;51.498;7.540;2023-05-07T10:14:37;11.98;;;10.98;;
16189;SDS011;41754;51.498;7.540;2023-05-07T10:17:05;11.30;;;10.40;;
16189;SDS011;41754;51.498;7.540;2023-05-07T10:19:34;11.30;;;10.20;;
16189;SDS011;41754;51.498;7.540;2023-05-07T10:22:06;11.60;;;10.65;;
16189;SDS011;41754;51.498;7.540;2023-05-07T10:24:40;11.68;;;10.68;;
16189;SDS011;41754;51.498;7.540;2023-05-07T10:27:16;11.02;;;10.02;;
16189;SDS011;41754;51.498;7.540;2023-05-07T10:29:52;10.85;;;9.95;;
16189;SDS011;41754;51.498;7.540;2023-05-07T10:32:33;10.40;;;9.30;;
16189;SDS011;41754;51.498;7.540;2023-05-07T10:35:11;9.95;;;9.05;;
16189;SDS011;41754;51.498;7.540;2023-05-07T10:37:43;10.35;;;9.50;;
16189;SDS011;41754;51.498;7.540;2023-05-07T10:40:12;9.82;;;9.02;;
16189;SDS011;41754;51.498;7.540;2023-05-07T10:42:54;10.20;;;9.20;;
16189;SDS011;41754;51.498;7.540;2023-05-07T10:45:24;11.95;;;10.90;;
16189;SDS011;41754;51.498;7.540;2023-05-07T10:48:05;11.70;;;10.77;;
16189;SDS011;41754;51.498;7.540;2023-05-07T11:03:18;14.02;;;12.63;;
16189;SDS011;41754;51.498;7.540;2023-05-07T11:06:08;9.05;;;8.25;;
16189;SDS011;41754;51.498;7.540;2023-05-07T11:08:52;9.85;;;9.05;;
16189;SDS011;41754;51.498;7.540;2023-05-07T11:14:43;9.57;;;8.65;;
16189;SDS011;41754;51.498;7.540;2023-05-07T11:17:23;8.63;;;7.93;;
16189;SDS011;41754;51.498;7.540;2023-05-07T11:19:59;8.90;;;8.10;;
16189;SDS011;41754;51.498;7.540;2023-05-07T11:22:37;7.93;;;7.32;;
16189;SDS011;41754;51.498;7.540;2023-05-07T11:25:17;9.02;;;8.20;;
16189;SDS011;41754;51.498;7.540;2023-05-07T11:27:50;9.85;;;8.95;;
16189;SDS011;41754;51.498;7.540;2023-05-07T11:30:19;10.32;;;9.38;;
16189;SDS011;41754;51.498;7.540;2023-05-07T11:32:49;9.73;;;8.88;;
16189;SDS011;41754;51.498;7.540;2023-05-07T11:35:24;8.27;;;7.50;;
16189;SDS011;41754;51.498;7.540;2023-05-07T11:37:57;9.43;;;8.63;;
16189;SDS011;41754;51.498;7.540;2023-05-07T11:40:29;9.07;;;8.18;;
16189;SDS011;41754;51.498;7.540;2023-05-07T11:42:57;9.65;;;8.65;;
16189;SDS011;41754;51.498;7.540;2023-05-07T11:45:25;11.00;;;10.02;;
16189;SDS011;41754;51.498;7.540;2023-05-07T11:47:54;11.15;;;10.07;;
16189;SDS011;41754;51.498;7.540;2023-05-07T11:50:22;9.80;;;8.93;;
16189;SDS011;41754;51.498;7.540;2023-05-07T11:52:50;8.63;;;7.93;;
16189;SDS011;41754;51.498;7.540;2023-05-07T11:55:19;9.02;;;8.32;;
16189;SDS011;41754;51.498;7.540;2023-05-07T11:57:48;9.23;;;8.40;;
16189;SDS011;41754;51.498;7.540;2023-05-07T12:00:16;8.07;;;7.22;;
16189;SDS011;41754;51.498;7.540;2023-05-07T12:02:44;7.25;;;6.65;;
16189;SDS011;41754;51.498;7.540;2023-05-07T12:05:14;7.38;;;6.78;;
16189;SDS011;41754;51.498;7.540;2023-05-07T12:07:44;7.82;;;7.22;;
16189;SDS011;41754;51.498;7.540;2023-05-07T12:10:12;8.07;;;7.38;;
16189;SDS011;41754;51.498;7.540;2023-05-07T12:12:41;8.23;;;7.63;;
16189;SDS011;41754;51.498;7.540;2023-05-07T12:15:09;8.90;;;8.18;;
16189;SDS011;41754;51.498;7.540;2023-05-07T12:17:38;9.07;;;8.35;;
16189;SDS011;41754;51.498;7.540;2023-05-07T12:20:07;9.63;;;8.73;;
16189;SDS011;41754;51.498;7.540;2023-05-07T12:22:37;9.77;;;8.88;;
16189;SDS011;41754;51.498;7.540;2023-05-07T12:25:06;9.07;;;8.18;;
16189;SDS011;41754;51.498;7.540;2023-05-07T12:27:36;9.55;;;8.50;;
16189;SDS011;41754;51.498;7.540;2023-05-07T12:30:05;8.68;;;7.97;;
16189;SDS011;41754;51.498;7.540;2023-05-07T12:32:36;9.00;;;7.88;;
16189;SDS011;41754;51.498;7.540;2023-05-07T12:35:05;7.97;;;7.20;;
16189;SDS011;41754;51.498;7.540;2023-05-07T12:37:34;8.13;;;7.30;;
16189;SDS011;41754;51.498;7.540;2023-05-07T12:40:05;8.40;;;7.05;;
16189;SDS011;41754;51.498;7.540;2023-05-07T12:42:35;7.82;;;7.10;;
16189;SDS011;41754;51.498;7.540;2023-05-07T12:45:10;8.45;;;7.63;;
16189;SDS011;41754;51.498;7.540;2023-05-07T12:47:43;7.72;;;6.93;;
16189;SDS011;41754;51.498;7.540;2023-05-07T12:50:11;7.22;;;6.53;;
16189;SDS011;41754;51.498;7.540;2023-05-07T12:52:40;6.78;;;6.28;;
16189;SDS011;41754;51.498;7.540;2023-05-07T12:55:12;6.00;;;5.50;;
16189;SDS011;41754;51.498;7.540;2023-05-07T12:57:42;5.85;;;5.18;;
16189;SDS011;41754;51.498;7.540;2023-05-07T13:00:13;5.20;;;4.80;;
16189;SDS011;41754;51.498;7.540;2023-05-07T13:02:42;5.32;;;4.82;;
16189;SDS011;41754;51.498;7.540;2023-05-07T13:05:12;5.53;;;5.03;;
16189;SDS011;41754;51.498;7.540;2023-05-07T13:07:40;5.68;;;5.13;;
16189;SDS011;41754;51.498;7.540;2023-05-07T13:10:10;5.80;;;5.30;;
16189;SDS011;41754;51.498;7.540;2023-05-07T13:12:38;4.80;;;4.40;;
16189;SDS011;41754;51.498;7.540;2023-05-07T13:15:06;5.78;;;5.28;;
16189;SDS011;41754;51.498;7.540;2023-05-07T13:17:35;6.32;;;5.82;;
16189;SDS011;41754;51.498;7.540;2023-05-07T13:20:04;5.65;;;5.15;;
16189;SDS011;41754;51.498;7.540;2023-05-07T13:22:34;5.75;;;5.25;;
16189;SDS011;41754;51.498;7.540;2023-05-07T13:25:02;5.63;;;4.93;;
16189;SDS011;41754;51.498;7.540;2023-05-07T13:27:32;6.15;;;5.55;;
16189;SDS011;41754;51.498;7.540;2023-05-07T13:30:02;6.22;;;5.25;;
16189;SDS011;41754;51.498;7.540;2023-05-07T13:32:31;6.15;;;5.60;;
16189;SDS011;41754;51.498;7.540;2023-05-07T13:34:59;6.10;;;5.40;;
16189;SDS011;41754;51.498;7.540;2023-05-07T13:37:27;7.45;;;6.85;;
16189;SDS011;41754;51.498;7.540;2023-05-07T13:39:55;10.35;;;7.15;;
16189;SDS011;41754;51.498;7.540;2023-05-07T13:42:23;7.32;;;6.63;;
16189;SDS011;41754;51.498;7.540;2023-05-07T13:44:53;6.45;;;5.90;;
16189;SDS011;41754;51.498;7.540;2023-05-07T13:47:20;6.53;;;5.78;;
16189;SDS011;41754;51.498;7.540;2023-05-07T13:49:50;8.32;;;7.55;;
16189;SDS011;41754;51.498;7.540;2023-05-07T13:52:18;5.88;;;5.38;;
16189;SDS011;41754;51.498;7.540;2023-05-07T13:54:46;6.00;;;5.50;;
16189;SDS011;41754;51.498;7.540;2023-05-07T13:57:14;5.63;;;5.18;;
16189;SDS011;41754;51.498;7.540;2023-05-07T13:59:42;6.82;;;6.10;;
16189;SDS011;41754;51.498;7.540;2023-05-07T14:02:12;7.80;;;6.57;;
16189;SDS011;41754;51.498;7.540;2023-05-07T14:04:40;6.72;;;6.13;;
16189;SDS011;41754;51.498;7.540;2023-05-07T14:07:08;6.35;;;5.63;;
16189;SDS011;41754;51.498;7.540;2023-05-07T14:09:36;7.18;;;6.57;;
16189;SDS011;41754;51.498;7.540;2023-05-07T14:12:04;7.55;;;6.93;;
16189;SDS011;41754;51.498;7.540;2023-05-07T14:14:33;8.20;;;7.40;;
16189;SDS011;41754;51.498;7.540;2023-05-07T14:17:01;8.23;;;7.47;;
16189;SDS011;41754;51.498;7.540;2023-05-07T14:19:30;8.13;;;7.15;;
16189;SDS011;41754;51.498;7.540;2023-05-07T14:21:58;7.90;;;7.20;;
16189;SDS011;41754;51.498;7.540;2023-05-07T14:24:26;8.15;;;7.35;;
16189;SDS011;41754;51.498;7.540;2023-05-07T14:27:04;7.82;;;7.22;;
16189;SDS011;41754;51.498;7.540;2023-05-07T14:29:32;7.82;;;7.22;;
16189;SDS011;41754;51.498;7.540;2023-05-07T14:32:01;7.82;;;7.10;;
16189;SDS011;41754;51.498;7.540;2023-05-07T14:34:32;11.07;;;9.15;;
16189;SDS011;41754;51.498;7.540;2023-05-07T14:37:00;8.60;;;7.53;;
16189;SDS011;41754;51.498;7.540;2023-05-07T14:39:28;7.72;;;6.95;;
16189;SDS011;41754;51.498;7.540;2023-05-07T14:41:56;5.95;;;5.45;;
16189;SDS011;41754;51.498;7.540;2023-05-07T14:44:24;5.40;;;5.00;;
16189;SDS011;41754;51.498;7.540;2023-05-07T14:46:52;5.68;;;5.18;;
16189;SDS011;41754;51.498;7.540;2023-05-07T14:49:20;9.63;;;8.73;;
16189;SDS011;41754;51.498;7.540;2023-05-07T14:51:49;5.70;;;5.20;;
16189;SDS011;41754;51.498;7.540;2023-05-07T14:54:17;5.13;;;4.63;;
16189;SDS011;41754;51.498;7.540;2023-05-07T14:56:45;5.47;;;4.40;;
16189;SDS011;41754;51.498;7.540;2023-05-07T14:59:13;4.32;;;4.00;;
16189;SDS011;41754;51.498;7.540;2023-05-07T15:01:43;3.78;;;3.47;;
16189;SDS011;41754;51.498;7.540;2023-05-07T15:04:11;5.20;;;4.10;;
16189;SDS011;41754;51.498;7.540;2023-05-07T15:06:41;3.65;;;3.30;;
16189;SDS011;41754;51.498;7.540;2023-05-07T15:09:10;4.05;;;3.17;;
16189;SDS011;41754;51.498;7.540;2023-05-07T15:11:38;3.33;;;3.03;;